Time;durP1;ratioP1;P1;durP2;ratioP2;P2;SDS_P1;SDS_P2;PMS_P1;PMS_P2;Temp;Humidity;BMP_temperature;BMP_pressure;BME280_temperature;BME280_humidity;BME280_pressure;Samples;Min_cycle;Max_cycle;Signal;HPM_P1;HPM_P2
2022/08/24 00:02:14;;;;;;;49.83;9.95;;;;;;;25.43;100.00;-18424.09;5072322;28;20199;-61
2022/08/24 00:04:41;;;;;;;35.05;9.77;;;;;;;25.51;100.00;-18425.88;5071602;28;20189;-61
2022/08/24 00:07:08;;;;;;;42.47;9.45;;;;;;;25.60;100.00;-18428.00;5072125;28;20195;-61
2022/08/24 00:09:35;;;;;;;26.35;8.27;;;;;;;25.57;100.00;-18427.16;5072150;28;20185;-61
2022/08/24 00:12:04;;;;;;;30.20;9.65;;;;;;;25.41;100.00;-18423.63;5072220;28;20187;-61
2022/08/24 00:14:33;;;;;;;40.42;9.93;;;;;;;25.56;100.00;-18426.94;5072195;28;20185;-61
2022/08/24 00:17:00;;;;;;;28.23;8.95;;;;;;;25.70;100.00;-18430.38;5072134;28;20516;-61
2022/08/24 00:19:27;;;;;;;27.33;9.60;;;;;;;25.74;100.00;-18431.19;5070985;28;20215;-61
2022/08/24 00:21:55;;;;;;;28.20;8.85;;;;;;;25.63;100.00;-18428.59;5072000;28;20238;-60
2022/08/24 00:24:22;;;;;;;35.03;9.52;;;;;;;25.69;100.00;-18430.13;5072106;28;20195;-61
2022/08/24 00:26:50;;;;;;;31.33;9.70;;;;;;;25.57;100.00;-18427.28;5072005;28;20187;-61
2022/08/24 00:29:18;;;;;;;30.10;9.35;;;;;;;25.44;100.00;-18424.22;5072182;28;20200;-61
2022/08/24 00:31:47;;;;;;;29.80;9.13;;;;;;;25.45;100.00;-18424.56;5071899;28;20189;-61
2022/08/24 00:34:14;;;;;;;33.20;9.98;;;;;;;25.48;100.00;-18425.16;5072063;28;20196;-61
2022/08/24 00:36:42;;;;;;;35.33;10.32;;;;;;;25.41;100.00;-18423.63;5071962;28;20693;-61
2022/08/24 00:39:09;;;;;;;22.98;9.32;;;;;;;25.42;100.00;-18423.75;5071879;28;20189;-61
2022/08/24 00:41:40;;;;;;;49.00;11.27;;;;;;;25.40;100.00;-18423.38;5072002;28;20232;-61
2022/08/24 00:44:08;;;;;;;36.83;9.60;;;;;;;25.45;100.00;-18424.56;5071921;28;20607;-62
2022/08/24 00:46:43;;;;;;;33.90;10.25;;;;;;;25.62;100.00;-18428.47;5071942;28;20567;-61
2022/08/24 00:49:21;;;;;;;40.63;10.35;;;;;;;25.63;100.00;-18428.72;5072064;28;20210;-60
2022/08/24 00:51:54;;;;;;;28.73;10.57;;;;;;;25.73;100.00;-18430.97;5071695;28;20185;-61
2022/08/24 00:54:24;;;;;;;34.47;10.20;;;;;;;25.75;100.00;-18431.56;5071798;28;20184;-61
2022/08/24 00:56:55;;;;;;;29.73;9.73;;;;;;;25.76;100.00;-18431.78;5071696;28;20238;-61
2022/08/24 00:59:26;;;;;;;34.28;9.75;;;;;;;25.80;100.00;-18432.72;5071461;28;20187;-61
2022/08/24 01:01:55;;;;;;;33.35;9.93;;;;;;;25.82;100.00;-18433.19;5071466;28;20181;-61
2022/08/24 01:04:29;;;;;;;43.92;11.13;;;;;;;25.77;100.00;-18432.03;5071482;28;20691;-61
2022/08/24 01:06:57;;;;;;;32.03;9.73;;;;;;;25.77;100.00;-18432.03;5071583;28;20186;-61
2022/08/24 01:09:24;;;;;;;32.17;9.52;;;;;;;25.80;100.00;-18432.72;5071790;28;20189;-61
2022/08/24 01:11:52;;;;;;;36.35;9.70;;;;;;;25.81;100.00;-18432.84;5072212;28;20288;-61
2022/08/24 01:14:21;;;;;;;29.63;9.93;;;;;;;25.81;100.00;-18432.97;5071309;28;20199;-62
2022/08/24 01:19:38;;;;;;;24.33;8.63;;;;;;;25.86;100.00;-18434.16;5075354;28;20192;-61
2022/08/24 01:22:29;;;;;;;28.45;10.07;;;;;;;25.82;100.00;-18433.09;5075121;28;20682;-62
2022/08/24 01:24:58;;;;;;;25.60;9.43;;;;;;;25.92;100.00;-18435.44;5075429;28;20196;-62
2022/08/24 01:27:26;;;;;;;26.25;9.98;;;;;;;25.75;100.00;-18431.56;5074994;28;20284;-61
2022/08/24 01:29:54;;;;;;;33.90;9.55;;;;;;;25.73;100.00;-18431.06;5074989;28;20185;-61
2022/08/24 01:32:24;;;;;;;23.20;10.18;;;;;;;25.80;100.00;-18432.72;5074943;28;20185;-60
2022/08/24 01:34:51;;;;;;;28.85;10.82;;;;;;;25.72;100.00;-18430.84;5075188;28;20529;-61
2022/08/24 01:37:18;;;;;;;26.83;9.55;;;;;;;25.57;100.00;-18427.28;5075046;28;20241;-61
2022/08/24 01:39:47;;;;;;;35.85;9.63;;;;;;;25.65;100.00;-18429.19;5074844;28;20192;-61
2022/08/24 01:42:16;;;;;;;33.38;9.80;;;;;;;25.65;100.00;-18429.19;5075074;28;20180;-60
2022/08/24 01:44:44;;;;;;;30.10;9.45;;;;;;;25.68;100.00;-18429.88;5074647;28;20193;-60
2022/08/24 01:47:13;;;;;;;35.00;10.45;;;;;;;25.86;100.00;-18434.03;5074579;28;20272;-61
2022/08/24 01:49:43;;;;;;;40.38;10.45;;;;;;;25.90;100.00;-18435.09;5074877;28;20628;-61
2022/08/24 01:52:13;;;;;;;26.25;10.05;;;;;;;25.98;100.00;-18436.75;5074560;28;20185;-60
2022/08/24 01:54:40;;;;;;;37.80;10.18;;;;;;;26.02;100.00;-18437.81;5074889;28;20185;-61
2022/08/24 01:57:08;;;;;;;29.98;10.43;;;;;;;26.02;100.00;-18437.69;5074676;28;20596;-61
2022/08/24 01:59:37;;;;;;;29.38;10.52;;;;;;;25.98;100.00;-18436.75;5074760;28;20551;-61
2022/08/24 02:02:09;;;;;;;29.27;10.10;;;;;;;26.08;100.00;-18439.22;5074405;28;20181;-61
2022/08/24 02:04:37;;;;;;;30.85;10.60;;;;;;;26.00;100.00;-18437.22;5074666;28;20639;-61
2022/08/24 02:07:04;;;;;;;35.08;9.88;;;;;;;25.93;100.00;-18435.69;5074299;28;20558;-61
2022/08/24 02:09:31;;;;;;;41.60;10.38;;;;;;;26.09;100.00;-18439.34;5074352;28;20275;-62
2022/08/24 02:11:58;;;;;;;35.38;10.77;;;;;;;26.01;100.00;-18437.56;5074552;28;20189;-62
2022/08/24 02:14:25;;;;;;;42.95;11.40;;;;;;;25.84;100.00;-18433.66;5074194;28;20188;-61
2022/08/24 02:16:53;;;;;;;44.95;10.93;;;;;;;25.99;100.00;-18436.97;5074095;28;20208;-62
2022/08/24 02:19:20;;;;;;;35.95;10.82;;;;;;;25.87;100.00;-18434.25;5074057;28;20191;-61
2022/08/24 02:21:47;;;;;;;32.85;10.98;;;;;;;26.02;100.00;-18437.69;5073972;28;20229;-61
2022/08/24 02:24:14;;;;;;;35.50;11.30;;;;;;;26.05;100.00;-18438.41;5073974;28;20191;-61
2022/08/24 02:26:41;;;;;;;28.10;10.07;;;;;;;26.11;100.00;-18439.94;5073892;28;20185;-62
2022/08/24 02:29:08;;;;;;;36.67;10.90;;;;;;;25.88;100.00;-18434.50;5073633;28;20185;-61
2022/08/24 02:31:36;;;;;;;37.97;10.95;;;;;;;25.86;100.00;-18434.16;5074250;28;20632;-60
2022/08/24 02:34:04;;;;;;;39.53;11.68;;;;;;;25.82;100.00;-18433.09;5073838;28;20185;-61
2022/08/24 02:36:31;;;;;;;45.10;10.90;;;;;;;25.76;100.00;-18431.78;5073624;28;20235;-61
2022/08/24 02:38:59;;;;;;;45.75;11.30;;;;;;;25.69;100.00;-18430.13;5074040;28;20552;-61
2022/08/24 02:41:26;;;;;;;50.88;11.57;;;;;;;25.72;100.00;-18430.72;5074019;28;20495;-60
2022/08/24 02:43:56;;;;;;;58.25;11.63;;;;;;;25.56;100.00;-18427.06;5073960;28;20234;-62
2022/08/24 02:46:25;;;;;;;64.95;10.82;;;;;;;25.65;100.00;-18429.19;5073529;28;20185;-61
2022/08/24 02:48:52;;;;;;;57.92;11.27;;;;;;;25.58;100.00;-18427.53;5073480;28;20195;-61
2022/08/24 02:51:23;;;;;;;56.42;11.65;;;;;;;25.65;100.00;-18429.19;5073388;28;20188;-60
2022/08/24 02:53:50;;;;;;;75.60;12.60;;;;;;;25.71;100.00;-18430.47;5073865;28;20570;-61
2022/08/24 02:56:19;;;;;;;68.82;11.48;;;;;;;25.72;100.00;-18430.84;5073299;28;20209;-62
2022/08/24 02:58:46;;;;;;;76.00;12.32;;;;;;;25.47;100.00;-18425.03;5073721;28;20558;-62
2022/08/24 03:01:15;;;;;;;78.68;13.23;;;;;;;25.56;100.00;-18427.06;5073580;28;20620;-61
2022/08/24 03:03:42;;;;;;;89.78;12.98;;;;;;;25.65;100.00;-18429.19;5073233;28;20181;-60
2022/08/24 03:06:09;;;;;;;76.88;12.07;;;;;;;25.66;100.00;-18429.41;5073504;28;20282;-61
2022/08/24 03:08:38;;;;;;;81.50;12.43;;;;;;;25.66;100.00;-18429.41;5073471;28;20185;-60
2022/08/24 03:11:07;;;;;;;70.90;12.10;;;;;;;25.47;100.00;-18424.91;5073011;28;20177;-61
2022/08/24 03:13:34;;;;;;;68.90;11.35;;;;;;;25.60;100.00;-18428.00;5073018;28;20181;-61
2022/08/24 03:16:02;;;;;;;92.13;12.55;;;;;;;25.59;100.00;-18427.75;5073182;28;20181;-61
2022/08/24 03:18:29;;;;;;;66.32;11.75;;;;;;;25.58;100.00;-18427.53;5072919;28;20185;-61
2022/08/24 03:20:58;;;;;;;64.85;11.65;;;;;;;25.55;100.00;-18426.69;5073123;28;20566;-61
2022/08/24 03:23:26;;;;;;;83.22;11.75;;;;;;;25.47;100.00;-18424.91;5073037;28;20195;-61
2022/08/24 03:25:55;;;;;;;66.65;10.77;;;;;;;25.41;100.00;-18423.63;5072925;28;20334;-61
2022/08/24 03:28:23;;;;;;;83.80;11.63;;;;;;;25.43;100.00;-18423.97;5072846;28;20195;-61
2022/08/24 03:30:50;;;;;;;60.10;11.77;;;;;;;25.48;100.00;-18425.28;5073017;28;20222;-61
2022/08/24 03:33:19;;;;;;;88.13;12.68;;;;;;;25.52;100.00;-18426.09;5073121;28;20189;-61
2022/08/24 03:35:46;;;;;;;74.75;12.52;;;;;;;25.42;100.00;-18423.75;5072835;28;20288;-61
2022/08/24 03:38:13;;;;;;;71.97;11.68;;;;;;;25.43;100.00;-18423.97;5072585;28;20587;-61
2022/08/24 03:40:40;;;;;;;80.72;11.77;;;;;;;25.38;100.00;-18422.91;5071900;28;20185;-61
2022/08/24 03:43:44;;;;;;;51.38;9.93;;;;;;;25.44;100.00;-18424.34;5072653;28;20203;-61
2022/08/24 03:45:57;;;;;;;68.03;10.82;;;;;;;25.43;100.00;-18423.97;5072275;28;20732;-60
2022/08/24 03:48:24;;;;;;;60.85;11.10;;;;;;;25.38;100.00;-18422.78;5072348;28;20227;-61
2022/08/24 03:50:51;;;;;;;59.67;10.90;;;;;;;25.33;100.00;-18421.72;5072308;28;20245;-62
2022/08/24 03:53:18;;;;;;;65.10;10.98;;;;;;;25.43;100.00;-18423.97;5072202;28;20191;-61
2022/08/24 03:55:45;;;;;;;66.28;11.27;;;;;;;25.43;100.00;-18423.97;5072650;28;20602;-61
2022/08/24 03:58:13;;;;;;;74.78;10.95;;;;;;;25.32;100.00;-18421.50;5072369;28;20278;-61
2022/08/24 04:00:41;;;;;;;66.45;10.10;;;;;;;25.38;100.00;-18422.91;5072187;28;20195;-61
2022/08/24 04:03:10;;;;;;;75.03;10.50;;;;;;;25.51;100.00;-18425.88;5072444;28;20699;-61
2022/08/24 04:05:38;;;;;;;62.50;9.82;;;;;;;25.46;100.00;-18424.69;5072186;28;20607;-60
2022/08/24 04:08:06;;;;;;;49.22;9.23;;;;;;;25.49;100.00;-18425.41;5072009;28;20185;-60
2022/08/24 04:10:33;;;;;;;57.72;9.80;;;;;;;25.48;100.00;-18425.16;5072002;28;20185;-60
2022/08/24 04:13:01;;;;;;;61.63;9.73;;;;;;;25.50;100.00;-18425.50;5071938;28;20188;-61
2022/08/24 04:15:30;;;;;;;50.38;10.95;;;;;;;25.56;100.00;-18427.06;5072173;28;20184;-61
2022/08/24 04:17:57;;;;;;;57.00;11.90;;;;;;;25.53;100.00;-18426.34;5072123;28;20205;-61
2022/08/24 04:20:24;;;;;;;47.08;11.35;;;;;;;25.65;100.00;-18429.19;5072357;28;20572;-61
2022/08/24 04:22:55;;;;;;;70.55;10.77;;;;;;;25.78;100.00;-18432.13;5071744;28;20425;-61
2022/08/24 04:25:23;;;;;;;71.38;11.32;;;;;;;25.96;100.00;-18436.28;5071719;28;20195;-60
2022/08/24 04:27:50;;;;;;;67.38;10.77;;;;;;;25.92;100.00;-18435.56;5071736;28;20184;-60
2022/08/24 04:30:17;;;;;;;65.38;10.65;;;;;;;25.86;100.00;-18434.16;5071747;28;20204;-62
2022/08/24 04:32:46;;;;;;;54.75;11.10;;;;;;;26.08;100.00;-18439.22;5072027;28;20188;-61
2022/08/24 04:35:13;;;;;;;50.28;9.65;;;;;;;26.07;100.00;-18438.88;5071575;28;20189;-61
2022/08/24 04:37:39;;;;;;;63.97;10.23;;;;;;;26.05;100.00;-18438.53;5071750;28;20243;-61
2022/08/24 04:40:08;;;;;;;56.20;9.73;;;;;;;26.21;100.00;-18442.19;5071733;28;20554;-62
2022/08/24 04:42:37;;;;;;;68.50;10.32;;;;;;;26.27;100.00;-17790.06;5071593;28;20189;-61
2022/08/24 04:45:05;;;;;;;45.03;8.88;;;;;;;26.28;100.00;-12246.13;5071962;28;20634;-61
2022/08/24 04:47:32;;;;;;;48.03;8.60;;;;;;;26.25;100.00;-11592.84;5071511;28;20269;-60
2022/08/24 04:50:00;;;;;;;49.50;9.55;;;;;;;26.15;100.00;-10612.19;5071946;28;20246;-62
2022/08/24 04:52:29;;;;;;;45.65;8.48;;;;;;;26.30;100.00;-10287.22;5075842;28;20655;-62
2022/08/24 04:54:55;;;;;;;54.00;9.02;;;;;;;26.35;100.00;-8327.31;5075964;28;20192;-62
2022/08/24 04:57:22;;;;;;;58.70;9.43;;;;;;;26.20;100.00;-8326.22;5075782;28;20675;-61
2022/08/24 04:59:49;;;;;;;51.15;7.85;;;;;;;26.15;100.00;-9305.91;5075578;28;20267;-61
2022/08/24 05:02:17;;;;;;;49.60;8.82;;;;;;;26.25;100.00;-9633.44;5075494;28;20184;-61
2022/08/24 05:04:43;;;;;;;64.10;8.45;;;;;;;26.32;100.00;-8000.28;5075444;28;20192;-62
2022/08/24 05:07:12;;;;;;;43.60;8.68;;;;;;;26.32;100.00;-8980.66;5075387;28;20191;-62
2022/08/24 05:09:39;;;;;;;60.65;8.70;;;;;;;26.13;100.00;-9958.88;5075678;28;20551;-61
2022/08/24 05:12:06;;;;;;;39.88;8.40;;;;;;;26.18;100.00;-7999.25;5075549;28;20709;-60
2022/08/24 05:14:33;;;;;;;39.63;7.88;;;;;;;26.11;100.00;-6037.69;5075308;28;20192;-61
2022/08/24 05:17:00;;;;;;;44.00;8.80;;;;;;;26.15;100.00;-5710.88;5075529;28;20671;-61
2022/08/24 05:19:27;;;;;;;54.00;8.23;;;;;;;26.30;100.00;-2439.00;5075256;28;20205;-62
2022/08/24 05:21:54;;;;;;;55.03;8.00;;;;;;;26.32;100.00;3787.81;5074955;28;20232;-60
2022/08/24 05:24:23;;;;;;;47.15;7.70;;;;;;;26.23;100.00;9038.72;5075389;28;20193;-61
2022/08/24 05:26:51;;;;;;;34.63;8.38;;;;;;;25.91;100.00;6406.69;5075355;28;20602;-60
2022/08/24 05:29:18;;;;;;;42.95;7.55;;;;;;;25.98;100.00;8377.06;5075311;28;20195;-61
2022/08/24 05:31:46;;;;;;;46.28;7.75;;;;;;;26.10;100.00;8707.75;5075195;28;20551;-61
2022/08/24 05:34:14;;;;;;;89.55;40.90;;;;;;;26.19;100.00;21214.44;5075205;28;20192;-62
2022/08/24 05:36:41;;;;;;;75.60;22.52;;;;;;;26.29;100.00;33773.06;5074745;28;20188;-60
2022/08/24 05:39:12;;;;;;;61.10;11.20;;;;;;;26.38;100.00;42396.47;5075131;28;20594;-60
2022/08/24 05:41:41;;;;;;;48.38;6.97;;;;;;;26.44;100.00;53705.03;5074999;28;20185;-60
2022/08/24 05:44:08;;;;;;;53.40;15.43;;;;;;;26.44;100.00;60039.22;5074979;28;20689;-60
2022/08/24 05:46:35;;;;;;;50.00;7.20;;;;;;;26.57;100.00;67402.16;5074882;28;20195;-60
2022/08/24 05:49:02;;;;;;;47.70;7.97;;;;;;;26.94;100.00;76491.75;5074400;28;20255;-61
2022/08/24 05:51:30;;;;;;;59.15;8.07;;;;;;;27.37;100.00;122516.88;5073427;28;20224;-62
2022/08/24 05:53:58;;;;;;;39.60;7.55;;;;;;;28.19;100.00;153133.44;5074545;28;20231;-64
2022/08/24 05:56:25;;;;;;;44.17;7.82;;;;;;;29.41;100.00;153443.44;5074226;28;20188;-62
2022/08/24 05:58:53;;;;;;;49.30;7.43;;;;;;;30.13;100.00;153625.41;5074227;28;20211;-63
2022/08/24 06:01:23;;;;;;;42.17;7.68;;;;;;;31.26;100.00;153912.72;5074333;28;20189;-62
2022/08/24 06:03:52;;;;;;;61.50;9.63;;;;;;;31.73;100.00;154030.75;5073334;28;20277;-62
2022/08/24 06:06:21;;;;;;;49.00;7.28;;;;;;;32.54;100.00;154237.38;5074431;28;20654;-62
2022/08/24 06:08:49;;;;;;;66.43;8.48;;;;;;;33.29;100.00;154426.16;5074279;28;20192;-62
2022/08/24 06:11:23;;;;;;;58.35;7.95;;;;;;;33.63;100.00;154513.47;5074079;28;20187;-61
2022/08/24 06:13:51;;;;;;;61.80;7.95;;;;;;;33.60;100.00;154504.47;5074311;28;20675;-61
2022/08/24 06:16:20;;;;;;;47.83;7.70;;;;;;;33.38;100.00;154449.25;5074006;28;20181;-62
2022/08/24 06:18:48;;;;;;;45.20;8.02;;;;;;;32.50;100.00;154227.13;5074847;28;20308;-61
2022/08/24 06:21:18;;;;;;;60.92;8.43;;;;;;;31.93;100.00;154080.75;5072596;28;20228;-61
2022/08/24 06:23:45;;;;;;;56.10;7.95;;;;;;;31.69;100.00;154020.50;5074186;28;20275;-61
2022/08/24 06:28:59;;;;;;;62.33;8.32;;;;;;;31.88;100.00;154067.91;5074034;28;20670;-63
2022/08/24 06:31:28;;;;;;;49.85;7.68;;;;;;;32.25;100.00;154161.66;5073997;28;20184;-62
2022/08/24 06:33:55;;;;;;;68.90;9.55;;;;;;;31.13;100.00;153878.06;5074073;28;20180;-61
2022/08/24 06:36:23;;;;;;;73.07;9.57;;;;;;;30.54;100.00;153728.03;5074142;28;20654;-61
2022/08/24 06:38:50;;;;;;;66.93;9.98;;;;;;;29.48;100.00;153461.41;5073732;28;20215;-61
2022/08/24 06:41:17;;;;;;;67.30;9.70;;;;;;;28.97;100.00;153330.69;5073894;28;20268;-62
2022/08/24 06:43:44;;;;;;;65.65;9.68;;;;;;;28.95;100.00;153326.81;5073890;28;20193;-62
2022/08/24 06:46:11;;;;;;;69.05;9.40;;;;;;;28.51;100.00;153214.13;5072434;28;20196;-62
2022/08/24 06:48:39;;;;;;;71.65;9.38;;;;;;;28.74;100.00;153271.75;5073553;28;20185;-62
2022/08/24 06:51:09;;;;;;;60.25;9.55;;;;;;;28.84;100.00;153297.38;5073846;28;20203;-61
2022/08/24 06:53:36;;;;;;;63.58;9.18;;;;;;;28.90;100.00;153314.00;5073704;28;20188;-62
2022/08/24 06:56:04;;;;;;;89.47;10.18;;;;;;;28.91;100.00;153316.59;5073670;28;20185;-62
2022/08/24 06:58:32;;;;;;;74.45;9.82;;;;;;;29.01;100.00;153342.22;5073388;28;20219;-61
2022/08/24 07:01:07;;;;;;;83.55;11.00;;;;;;;29.03;100.00;153346.03;5073818;28;20189;-62
2022/08/24 07:03:34;;;;;;;205.70;124.88;;;;;;;28.97;100.00;153330.69;5073090;28;20188;-61
2022/08/24 07:06:04;;;;;;;62.47;11.68;;;;;;;28.89;100.00;153311.50;5073491;28;20187;-62
2022/08/24 07:08:34;;;;;;;71.25;10.10;;;;;;;28.96;100.00;153328.13;5073889;28;20559;-62
2022/08/24 07:11:01;;;;;;;60.92;9.15;;;;;;;29.16;100.00;153379.34;5073339;28;20590;-61
2022/08/24 07:13:29;;;;;;;80.25;10.63;;;;;;;29.23;100.00;153396.00;5073170;28;20280;-62
2022/08/24 07:15:57;;;;;;;84.55;11.30;;;;;;;29.22;100.00;153394.72;5073168;28;20199;-62
2022/08/24 07:18:25;;;;;;;65.75;9.77;;;;;;;29.20;100.00;153389.59;5073098;28;20209;-63
2022/08/24 07:20:52;;;;;;;85.78;11.05;;;;;;;29.21;100.00;153392.16;5073247;28;20210;-61
2022/08/24 07:23:21;;;;;;;82.97;11.00;;;;;;;28.99;100.00;153337.06;5072892;28;20185;-62
2022/08/24 07:25:49;;;;;;;79.35;11.55;;;;;;;29.08;100.00;153358.84;5072812;28;20188;-62
2022/08/24 07:28:16;;;;;;;84.78;10.32;;;;;;;29.12;100.00;153367.81;5072622;28;20631;-60
2022/08/24 07:30:43;;;;;;;98.40;19.20;;;;;;;29.22;100.00;153394.72;5068912;28;20388;-60
2022/08/24 07:33:11;;;;;;;67.45;9.52;;;;;;;29.36;100.00;153429.38;5052654;28;20177;-61
2022/08/24 07:35:38;;;;;;;90.55;11.65;;;;;;;29.47;100.00;153457.53;5052997;28;20192;-61
2022/08/24 07:38:08;;;;;;;74.55;11.82;;;;;;;29.59;100.00;153488.28;5052285;28;20207;-61
2022/08/24 07:40:36;;;;;;;83.55;11.15;;;;;;;29.70;100.00;153515.19;5052864;28;20196;-61
2022/08/24 07:43:03;;;;;;;73.30;11.38;;;;;;;29.98;100.00;153585.69;5052291;28;20192;-62
2022/08/24 07:45:32;;;;;;;81.93;10.63;;;;;;;30.21;100.00;153644.66;5051596;28;20556;-60
2022/08/24 07:48:01;;;;;;;86.63;11.68;;;;;;;30.43;100.00;153699.78;5057404;28;20201;-61
2022/08/24 07:50:29;;;;;;;82.60;11.13;;;;;;;30.76;100.00;153785.72;5072822;28;20208;-59
2022/08/24 07:52:57;;;;;;;70.28;9.80;;;;;;;31.04;100.00;153856.28;5072312;28;20195;-60
2022/08/24 07:55:24;;;;;;;71.47;10.38;;;;;;;31.64;100.00;154007.66;5072573;28;20254;-61
2022/08/24 07:57:52;;;;;;;73.10;8.82;;;;;;;32.23;100.00;154157.81;5072370;28;20300;-62
2022/08/24 08:00:21;;;;;;;86.53;10.38;;;;;;;32.75;100.00;154288.75;5072020;28;20188;-62
2022/08/24 08:02:49;;;;;;;84.13;9.48;;;;;;;33.16;100.00;154394.06;5072123;28;20636;-62
2022/08/24 08:05:19;;;;;;;72.72;9.77;;;;;;;33.21;100.00;154405.59;5059837;28;20201;-62
2022/08/24 08:07:46;;;;;;;73.82;9.63;;;;;;;33.44;100.00;154465.94;5052393;28;20182;-61
2022/08/24 08:10:13;;;;;;;63.33;9.10;;;;;;;33.57;100.00;154496.78;5065612;28;20193;-62
2022/08/24 08:12:39;;;;;;;68.93;9.88;;;;;;;33.50;100.00;154481.38;5072086;28;20185;-61
2022/08/24 08:15:10;;;;;;;73.82;9.52;;;;;;;33.54;100.00;154490.34;5072173;28;20552;-61
2022/08/24 08:17:37;;;;;;;73.47;8.55;;;;;;;33.49;100.00;154477.50;5072068;28;20559;-62
2022/08/24 08:20:05;;;;;;;83.72;10.13;;;;;;;33.53;100.00;154487.75;5072090;28;20208;-61
2022/08/24 08:25:18;;;;;;;72.35;9.65;;;;;;;33.34;100.00;154439.00;5071627;28;20349;-61
2022/08/24 08:27:45;;;;;;;57.35;9.02;;;;;;;33.27;100.00;154421.03;5072217;28;20181;-60
2022/08/24 08:30:14;;;;;;;57.15;8.73;;;;;;;33.80;100.00;154555.91;5070709;28;20200;-62
2022/08/24 08:32:45;;;;;;;71.07;9.50;;;;;;;34.02;100.00;154612.41;5071866;28;20188;-61
2022/08/24 08:35:12;;;;;;;73.18;8.95;;;;;;;33.99;100.00;154603.44;5071757;28;20564;-61
2022/08/24 08:37:39;;;;;;;48.97;8.65;;;;;;;33.96;100.00;154598.28;5072012;28;20224;-62
2022/08/24 08:40:11;;;;;;;75.85;8.32;;;;;;;33.28;100.00;154423.56;5071239;28;20200;-61
2022/08/24 08:42:57;;;;;;;42.22;7.68;;;;;;;32.06;100.00;154114.13;5071707;28;20189;-61
2022/08/24 08:45:34;;;;;;;63.03;8.43;;;;;;;32.10;100.00;154125.72;5071947;28;20181;-60
2022/08/24 08:48:42;;;;;;;54.72;8.45;;;;;;;31.79;100.00;154046.13;5071912;28;20181;-61
2022/08/24 08:51:38;;;;;;;68.95;8.98;;;;;;;31.79;100.00;154044.81;5072519;28;20275;-62
2022/08/24 08:54:13;;;;;;;55.42;9.32;;;;;;;31.99;100.00;154097.47;5071756;28;20631;-61
2022/08/24 08:56:54;;;;;;;66.82;9.60;;;;;;;32.26;100.00;154165.47;5071586;28;20615;-61
2022/08/24 08:59:37;;;;;;;75.57;10.73;;;;;;;32.26;100.00;154165.47;5054892;28;20209;-61
2022/08/24 09:02:19;;;;;;;85.60;10.52;;;;;;;32.01;100.00;154102.56;5067315;28;20586;-61
2022/08/24 09:04:58;;;;;;;83.30;10.88;;;;;;;31.76;100.00;154038.44;5071599;28;20188;-62
2022/08/24 09:07:43;;;;;;;64.82;10.75;;;;;;;31.72;100.00;154029.47;5071941;28;20208;-62
2022/08/24 09:10:40;;;;;;;75.75;10.20;;;;;;;31.92;100.00;154079.47;5071507;28;20206;-61
2022/08/24 09:13:24;;;;;;;90.13;12.23;;;;;;;31.79;100.00;154046.13;5061034;28;20200;-61
2022/08/24 09:16:12;;;;;;;64.00;9.50;;;;;;;32.23;100.00;154156.50;5071747;28;20563;-61
2022/08/24 09:18:55;;;;;;;60.03;9.30;;;;;;;32.38;100.00;154195.03;5071347;28;20209;-61
2022/08/24 09:21:49;;;;;;;68.97;11.35;;;;;;;32.49;100.00;154223.25;5071630;28;20281;-61
2022/08/24 09:24:36;;;;;;;70.63;10.48;;;;;;;32.61;100.00;154254.03;5072181;28;20248;-62
2022/08/24 09:27:16;;;;;;;68.68;9.25;;;;;;;32.71;100.00;154278.50;5067084;28;20612;-61
2022/08/24 09:30:02;;;;;;;47.70;8.80;;;;;;;32.52;100.00;154230.94;5051771;28;20188;-61
2022/08/24 09:32:38;;;;;;;70.13;9.88;;;;;;;32.63;100.00;154259.25;5051452;28;20185;-62
2022/08/24 09:35:13;;;;;;;51.22;8.70;;;;;;;32.76;100.00;154292.56;5051316;28;20193;-62
2022/08/24 09:37:56;;;;;;;67.43;8.55;;;;;;;32.48;100.00;154221.97;5053990;28;20185;-62
2022/08/24 09:40:36;;;;;;;83.68;9.50;;;;;;;32.53;100.00;154234.81;5055197;28;20201;-61
2022/08/24 09:43:52;;;;;;;62.30;8.65;;;;;;;32.49;100.00;154223.25;5055428;28;20611;-61
2022/08/24 09:47:05;;;;;;;66.90;8.85;;;;;;;32.55;100.00;154238.63;5053200;28;20201;-62
2022/08/24 09:49:50;;;;;;;62.55;9.85;;;;;;;32.57;100.00;154243.78;5054992;28;20513;-62
2022/08/24 09:53:01;;;;;;;65.43;10.05;;;;;;;32.57;100.00;154243.78;5055100;28;20186;-62
2022/08/24 09:56:10;;;;;;;64.53;9.43;;;;;;;31.85;100.00;154060.25;5054960;28;20192;-62
2022/08/24 09:58:56;;;;;;;54.55;8.02;;;;;;;31.69;100.00;154020.50;5044377;28;20712;-63
2022/08/24 10:01:30;;;;;;;64.70;8.93;;;;;;;31.53;100.00;153979.41;5053307;28;20243;-62
2022/08/24 10:04:11;;;;;;;78.47;9.98;;;;;;;31.34;100.00;153930.66;5055021;28;20192;-61
2022/08/24 10:06:50;;;;;;;70.60;9.27;;;;;;;31.33;100.00;153929.34;5054378;28;20264;-62
2022/08/24 10:09:49;;;;;;;54.90;9.23;;;;;;;31.27;100.00;153914.00;5060254;28;20287;-62
2022/08/24 10:12:22;;;;;;;73.55;10.70;;;;;;;31.26;100.00;153911.41;5070761;28;20240;-62
2022/08/24 10:14:59;;;;;;;74.60;10.25;;;;;;;31.23;100.00;153904.97;5074427;28;20200;-62
2022/08/24 10:17:38;;;;;;;74.40;11.30;;;;;;;31.19;100.00;153893.47;5074348;28;20180;-62
2022/08/24 10:20:22;;;;;;;84.57;10.77;;;;;;;31.14;100.00;153881.94;5074300;28;20247;-63
2022/08/24 10:23:28;;;;;;;65.07;10.55;;;;;;;30.98;100.00;153839.56;5074123;28;20235;-61
2022/08/24 10:26:03;;;;;;;72.60;12.30;;;;;;;30.80;100.00;153794.69;5074156;28;20204;-62
2022/08/24 10:28:58;;;;;;;69.90;9.20;;;;;;;30.94;100.00;153830.56;5072745;28;20192;-62
2022/08/24 10:31:35;;;;;;;77.25;10.98;;;;;;;31.18;100.00;153892.19;5073574;28;20192;-62
2022/08/24 10:34:28;;;;;;;85.80;10.63;;;;;;;31.34;100.00;153930.66;5074314;28;20562;-62
2022/08/24 10:37:23;;;;;;;67.03;9.27;;;;;;;31.39;100.00;153943.47;5073600;28;20214;-62
2022/08/24 10:40:15;;;;;;;63.17;10.10;;;;;;;31.52;100.00;153978.13;5073224;28;20296;-62
2022/08/24 10:46:18;;;;;;;123.38;14.40;;;;;;;31.57;100.00;153990.94;5073772;28;20188;-62
2022/08/24 10:49:23;;;;;;;79.38;12.15;;;;;;;31.19;100.00;153893.47;5071989;28;20189;-61
2022/08/24 10:52:12;;;;;;;80.15;10.35;;;;;;;30.92;100.00;153824.16;5073538;28;20189;-62
2022/08/24 10:54:40;;;;;;;88.93;11.80;;;;;;;30.80;100.00;153794.69;5073334;28;20567;-61
2022/08/24 10:57:15;;;;;;;102.25;12.70;;;;;;;30.93;100.00;153828.03;5073480;28;20207;-62
2022/08/24 10:59:55;;;;;;;87.07;11.65;;;;;;;30.86;100.00;153810.06;5073193;28;20266;-62
2022/08/24 11:02:31;;;;;;;67.20;8.48;;;;;;;30.82;100.00;153799.78;5073375;28;20184;-61
2022/08/24 11:05:04;;;;;;;74.15;9.52;;;;;;;30.74;100.00;153779.28;5073420;28;20654;-62
2022/08/24 11:07:32;;;;;;;86.45;9.77;;;;;;;30.56;100.00;153734.41;5073143;28;20195;-62
2022/08/24 11:10:02;;;;;;;77.80;8.88;;;;;;;30.70;100.00;153769.03;5073022;28;20188;-62
2022/08/24 11:12:31;;;;;;;93.78;11.90;;;;;;;30.88;100.00;153815.19;5072862;28;20220;-61
2022/08/24 11:15:01;;;;;;;59.58;8.50;;;;;;;30.89;100.00;153817.78;5073122;28;20654;-61
2022/08/24 11:17:30;;;;;;;58.42;8.10;;;;;;;30.89;100.00;153817.78;5073678;28;20723;-61
2022/08/24 11:19:58;;;;;;;59.63;8.60;;;;;;;30.92;100.00;153824.16;5072450;28;20220;-62
2022/08/24 11:22:31;;;;;;;45.65;7.72;;;;;;;30.89;100.00;153817.78;5072884;28;20248;-62
2022/08/24 11:25:01;;;;;;;53.67;8.00;;;;;;;30.83;100.00;153803.66;5073753;28;20513;-61
2022/08/24 11:27:33;;;;;;;73.15;9.98;;;;;;;30.66;100.00;153758.78;5073008;28;20191;-62
2022/08/24 11:30:06;;;;;;;52.35;7.90;;;;;;;30.64;100.00;153754.91;5073058;28;20185;-61
2022/08/24 11:32:39;;;;;;;53.30;8.68;;;;;;;30.59;100.00;153740.84;5072690;28;20185;-62
2022/08/24 11:35:14;;;;;;;51.85;7.85;;;;;;;30.45;100.00;153706.22;5072977;28;20655;-62
2022/08/24 11:37:43;;;;;;;50.83;7.68;;;;;;;30.27;100.00;153661.31;5073210;28;20184;-61
2022/08/24 11:40:11;;;;;;;65.97;8.25;;;;;;;30.23;100.00;153651.06;5072332;28;20208;-61